sensor_id;sensor_type;location;lat;lon;timestamp;temperature;humidity
5899;DHT22;2975;50.956;6.962;2022-12-18T00:01:41;-4.00;99.90
5899;DHT22;2975;50.956;6.962;2022-12-18T00:04:14;-4.00;99.90
5899;DHT22;2975;50.956;6.962;2022-12-18T00:06:40;-4.00;99.90
5899;DHT22;2975;50.956;6.962;2022-12-18T00:09:06;-4.10;99.90
5899;DHT22;2975;50.956;6.962;2022-12-18T00:11:32;-4.10;99.90
5899;DHT22;2975;50.956;6.962;2022-12-18T00:13:59;-4.10;99.90
5899;DHT22;2975;50.956;6.962;2022-12-18T00:16:26;-4.10;99.90
5899;DHT22;2975;50.956;6.962;2022-12-18T00:18:54;-4.00;99.90
5899;DHT22;2975;50.956;6.962;2022-12-18T00:21:20;-4.10;99.90
5899;DHT22;2975;50.956;6.962;2022-12-18T00:23:47;-4.10;99.90
5899;DHT22;2975;50.956;6.962;2022-12-18T00:26:33;-4.20;99.90
5899;DHT22;2975;50.956;6.962;2022-12-18T00:29:00;-4.20;99.90
5899;DHT22;2975;50.956;6.962;2022-12-18T00:31:26;-4.20;99.90
5899;DHT22;2975;50.956;6.962;2022-12-18T00:33:56;-4.20;99.90
5899;DHT22;2975;50.956;6.962;2022-12-18T00:36:28;-4.20;99.90
5899;DHT22;2975;50.956;6.962;2022-12-18T00:38:56;-4.30;99.90
5899;DHT22;2975;50.956;6.962;2022-12-18T00:41:22;-4.30;99.90
5899;DHT22;2975;50.956;6.962;2022-12-18T00:44:10;-4.30;99.90
5899;DHT22;2975;50.956;6.962;2022-12-18T00:46:36;-4.30;99.90
5899;DHT22;2975;50.956;6.962;2022-12-18T00:49:02;-4.40;99.90
5899;DHT22;2975;50.956;6.962;2022-12-18T00:51:28;-4.40;99.90
5899;DHT22;2975;50.956;6.962;2022-12-18T00:53:53;-4.40;99.90
5899;DHT22;2975;50.956;6.962;2022-12-18T00:56:19;-4.50;99.90
5899;DHT22;2975;50.956;6.962;2022-12-18T00:58:47;-4.50;99.90
5899;DHT22;2975;50.956;6.962;2022-12-18T01:01:13;-4.40;99.90
5899;DHT22;2975;50.956;6.962;2022-12-18T01:03:39;-4.40;99.90
5899;DHT22;2975;50.956;6.962;2022-12-18T01:06:09;-4.50;99.90
5899;DHT22;2975;50.956;6.962;2022-12-18T01:08:35;-4.50;99.90
5899;DHT22;2975;50.956;6.962;2022-12-18T01:11:07;-4.50;99.90
5899;DHT22;2975;50.956;6.962;2022-12-18T01:13:33;-4.50;99.90
5899;DHT22;2975;50.956;6.962;2022-12-18T01:15:59;-4.50;99.90
5899;DHT22;2975;50.956;6.962;2022-12-18T01:18:24;-4.50;99.90
5899;DHT22;2975;50.956;6.962;2022-12-18T01:20:50;-4.50;99.90
5899;DHT22;2975;50.956;6.962;2022-12-18T01:23:15;-4.40;99.90
5899;DHT22;2975;50.956;6.962;2022-12-18T01:25:41;-4.30;99.90
5899;DHT22;2975;50.956;6.962;2022-12-18T01:28:06;-4.30;99.90
5899;DHT22;2975;50.956;6.962;2022-12-18T01:30:32;-4.40;99.90
5899;DHT22;2975;50.956;6.962;2022-12-18T01:32:58;-4.30;99.90
5899;DHT22;2975;50.956;6.962;2022-12-18T01:35:23;-4.40;99.90
5899;DHT22;2975;50.956;6.962;2022-12-18T01:37:49;-4.30;99.90
5899;DHT22;2975;50.956;6.962;2022-12-18T01:40:14;-4.20;99.90
5899;DHT22;2975;50.956;6.962;2022-12-18T01:42:40;-4.20;99.90
5899;DHT22;2975;50.956;6.962;2022-12-18T01:45:27;-4.10;99.90
5899;DHT22;2975;50.956;6.962;2022-12-18T01:47:56;-4.10;99.90
5899;DHT22;2975;50.956;6.962;2022-12-18T01:50:39;-4.20;99.90
5899;DHT22;2975;50.956;6.962;2022-12-18T01:53:15;-4.10;99.90
5899;DHT22;2975;50.956;6.962;2022-12-18T01:55:48;-4.10;99.90
5899;DHT22;2975;50.956;6.962;2022-12-18T01:58:15;-4.10;99.90
5899;DHT22;2975;50.956;6.962;2022-12-18T02:00:41;-4.10;99.90
5899;DHT22;2975;50.956;6.962;2022-12-18T02:10:03;-4.40;99.90
5899;DHT22;2975;50.956;6.962;2022-12-18T02:12:51;-4.30;99.90
5899;DHT22;2975;50.956;6.962;2022-12-18T02:20:32;-4.20;99.90
5899;DHT22;2975;50.956;6.962;2022-12-18T02:28:46;-4.30;99.90
5899;DHT22;2975;50.956;6.962;2022-12-18T02:31:18;-4.30;99.90
5899;DHT22;2975;50.956;6.962;2022-12-18T02:33:45;-4.30;99.90
5899;DHT22;2975;50.956;6.962;2022-12-18T02:36:12;-4.30;99.90
5899;DHT22;2975;50.956;6.962;2022-12-18T02:38:40;-4.30;99.90
5899;DHT22;2975;50.956;6.962;2022-12-18T02:41:07;-4.30;99.90
5899;DHT22;2975;50.956;6.962;2022-12-18T02:43:33;-4.30;99.90
5899;DHT22;2975;50.956;6.962;2022-12-18T02:46:00;-4.30;99.90
5899;DHT22;2975;50.956;6.962;2022-12-18T02:48:32;-4.30;99.90
5899;DHT22;2975;50.956;6.962;2022-12-18T02:53:53;-4.30;99.90
5899;DHT22;2975;50.956;6.962;2022-12-18T02:56:36;-4.30;99.90
5899;DHT22;2975;50.956;6.962;2022-12-18T02:59:13;-4.40;99.90
5899;DHT22;2975;50.956;6.962;2022-12-18T03:01:45;-4.50;99.90
5899;DHT22;2975;50.956;6.962;2022-12-18T03:04:24;-4.60;99.90
5899;DHT22;2975;50.956;6.962;2022-12-18T03:06:55;-4.60;99.90
5899;DHT22;2975;50.956;6.962;2022-12-18T03:09:28;-4.50;99.90
5899;DHT22;2975;50.956;6.962;2022-12-18T03:12:02;-4.50;99.90
5899;DHT22;2975;50.956;6.962;2022-12-18T03:17:27;-4.40;99.90
5899;DHT22;2975;50.956;6.962;2022-12-18T03:19:55;-4.40;99.90
5899;DHT22;2975;50.956;6.962;2022-12-18T03:22:24;-4.30;99.90
5899;DHT22;2975;50.956;6.962;2022-12-18T03:24:54;-4.40;99.90
5899;DHT22;2975;50.956;6.962;2022-12-18T03:27:24;-4.50;99.90
5899;DHT22;2975;50.956;6.962;2022-12-18T03:30:06;-4.50;99.90
5899;DHT22;2975;50.956;6.962;2022-12-18T03:32:41;-4.50;99.90
5899;DHT22;2975;50.956;6.962;2022-12-18T03:35:09;-4.50;99.90
5899;DHT22;2975;50.956;6.962;2022-12-18T03:37:36;-4.40;99.90
5899;DHT22;2975;50.956;6.962;2022-12-18T03:40:02;-4.50;99.90
5899;DHT22;2975;50.956;6.962;2022-12-18T03:47:55;-4.70;99.90
5899;DHT22;2975;50.956;6.962;2022-12-18T03:50:46;-4.70;99.90
5899;DHT22;2975;50.956;6.962;2022-12-18T03:53:39;-4.70;99.90
5899;DHT22;2975;50.956;6.962;2022-12-18T03:56:06;-4.80;99.90
5899;DHT22;2975;50.956;6.962;2022-12-18T03:58:34;-4.80;99.90
5899;DHT22;2975;50.956;6.962;2022-12-18T04:01:04;-4.70;99.90
5899;DHT22;2975;50.956;6.962;2022-12-18T04:03:34;-4.60;99.90
5899;DHT22;2975;50.956;6.962;2022-12-18T04:06:02;-4.60;99.90
5899;DHT22;2975;50.956;6.962;2022-12-18T04:08:28;-4.60;99.90
5899;DHT22;2975;50.956;6.962;2022-12-18T04:10:54;-4.50;99.90
5899;DHT22;2975;50.956;6.962;2022-12-18T04:13:35;-4.50;99.90
5899;DHT22;2975;50.956;6.962;2022-12-18T04:16:01;-4.40;99.90
5899;DHT22;2975;50.956;6.962;2022-12-18T04:18:27;-4.40;99.90
5899;DHT22;2975;50.956;6.962;2022-12-18T04:20:53;-4.40;99.90
5899;DHT22;2975;50.956;6.962;2022-12-18T04:23:18;-4.50;99.90
5899;DHT22;2975;50.956;6.962;2022-12-18T04:25:44;-4.50;99.90
5899;DHT22;2975;50.956;6.962;2022-12-18T04:28:10;-4.50;99.90
5899;DHT22;2975;50.956;6.962;2022-12-18T04:30:36;-4.40;99.90
5899;DHT22;2975;50.956;6.962;2022-12-18T04:33:01;-4.40;99.90
5899;DHT22;2975;50.956;6.962;2022-12-18T04:35:27;-4.40;99.90
5899;DHT22;2975;50.956;6.962;2022-12-18T04:37:52;-4.40;99.90
5899;DHT22;2975;50.956;6.962;2022-12-18T04:40:18;-4.40;99.90
5899;DHT22;2975;50.956;6.962;2022-12-18T04:42:44;-4.30;99.90
5899;DHT22;2975;50.956;6.962;2022-12-18T04:45:09;-4.30;99.90
5899;DHT22;2975;50.956;6.962;2022-12-18T04:47:35;-4.40;99.90
5899;DHT22;2975;50.956;6.962;2022-12-18T04:50:01;-4.40;99.90
5899;DHT22;2975;50.956;6.962;2022-12-18T04:52:26;-4.40;99.90
5899;DHT22;2975;50.956;6.962;2022-12-18T04:54:52;-4.40;99.90
5899;DHT22;2975;50.956;6.962;2022-12-18T04:57:18;-4.30;99.90
5899;DHT22;2975;50.956;6.962;2022-12-18T04:59:44;-4.30;99.90
5899;DHT22;2975;50.956;6.962;2022-12-18T05:02:09;-4.40;99.90
5899;DHT22;2975;50.956;6.962;2022-12-18T05:04:35;-4.40;99.90
5899;DHT22;2975;50.956;6.962;2022-12-18T05:07:01;-4.40;99.90
5899;DHT22;2975;50.956;6.962;2022-12-18T05:09:26;-4.40;99.90
5899;DHT22;2975;50.956;6.962;2022-12-18T05:11:52;-4.50;99.90
5899;DHT22;2975;50.956;6.962;2022-12-18T05:14:17;-4.60;99.90
5899;DHT22;2975;50.956;6.962;2022-12-18T05:16:43;-4.60;99.90
5899;DHT22;2975;50.956;6.962;2022-12-18T05:19:08;-4.60;99.90
5899;DHT22;2975;50.956;6.962;2022-12-18T05:21:34;-4.60;99.90
5899;DHT22;2975;50.956;6.962;2022-12-18T05:24:00;-4.70;99.90
5899;DHT22;2975;50.956;6.962;2022-12-18T05:26:25;-4.70;99.90
5899;DHT22;2975;50.956;6.962;2022-12-18T05:28:51;-4.70;99.90
5899;DHT22;2975;50.956;6.962;2022-12-18T05:31:16;-4.70;99.90
5899;DHT22;2975;50.956;6.962;2022-12-18T05:33:43;-4.70;99.90
5899;DHT22;2975;50.956;6.962;2022-12-18T05:36:09;-4.80;99.90
5899;DHT22;2975;50.956;6.962;2022-12-18T05:38:37;-4.80;99.90
5899;DHT22;2975;50.956;6.962;2022-12-18T05:41:03;-4.80;99.90
5899;DHT22;2975;50.956;6.962;2022-12-18T05:43:29;-4.80;99.90
5899;DHT22;2975;50.956;6.962;2022-12-18T05:45:55;-4.80;99.90
5899;DHT22;2975;50.956;6.962;2022-12-18T05:48:22;-4.80;99.90
5899;DHT22;2975;50.956;6.962;2022-12-18T05:50:49;-4.80;99.90
5899;DHT22;2975;50.956;6.962;2022-12-18T05:53:17;-4.80;99.90
5899;DHT22;2975;50.956;6.962;2022-12-18T05:55:44;-4.90;99.90
5899;DHT22;2975;50.956;6.962;2022-12-18T05:58:11;-4.90;99.90
5899;DHT22;2975;50.956;6.962;2022-12-18T06:00:41;-4.80;99.90
5899;DHT22;2975;50.956;6.962;2022-12-18T06:03:09;-4.90;99.90
5899;DHT22;2975;50.956;6.962;2022-12-18T06:05:40;-4.90;99.90
5899;DHT22;2975;50.956;6.962;2022-12-18T06:08:06;-4.90;99.90
5899;DHT22;2975;50.956;6.962;2022-12-18T06:10:32;-5.00;99.90
5899;DHT22;2975;50.956;6.962;2022-12-18T06:12:58;-5.00;99.90
5899;DHT22;2975;50.956;6.962;2022-12-18T06:15:23;-5.00;99.90
5899;DHT22;2975;50.956;6.962;2022-12-18T06:17:49;-4.90;99.90
5899;DHT22;2975;50.956;6.962;2022-12-18T06:20:15;-4.90;99.90
5899;DHT22;2975;50.956;6.962;2022-12-18T06:22:41;-4.90;99.90
5899;DHT22;2975;50.956;6.962;2022-12-18T06:25:07;-4.90;99.90
5899;DHT22;2975;50.956;6.962;2022-12-18T06:27:32;-4.90;99.90
5899;DHT22;2975;50.956;6.962;2022-12-18T06:29:59;-4.90;99.90
5899;DHT22;2975;50.956;6.962;2022-12-18T06:32:25;-4.80;99.90
5899;DHT22;2975;50.956;6.962;2022-12-18T06:34:51;-4.70;99.90
5899;DHT22;2975;50.956;6.962;2022-12-18T06:37:16;-4.60;99.90
5899;DHT22;2975;50.956;6.962;2022-12-18T06:39:42;-4.60;99.90
5899;DHT22;2975;50.956;6.962;2022-12-18T06:42:07;-4.60;99.90
5899;DHT22;2975;50.956;6.962;2022-12-18T06:44:33;-4.50;99.90
5899;DHT22;2975;50.956;6.962;2022-12-18T06:46:58;-4.50;99.90
5899;DHT22;2975;50.956;6.962;2022-12-18T06:49:24;-4.50;99.90
5899;DHT22;2975;50.956;6.962;2022-12-18T06:51:50;-4.60;99.90
5899;DHT22;2975;50.956;6.962;2022-12-18T06:54:16;-4.60;99.90
5899;DHT22;2975;50.956;6.962;2022-12-18T06:56:41;-4.60;99.90
5899;DHT22;2975;50.956;6.962;2022-12-18T06:59:07;-4.60;99.90
5899;DHT22;2975;50.956;6.962;2022-12-18T07:01:32;-4.50;99.90
5899;DHT22;2975;50.956;6.962;2022-12-18T07:03:58;-4.50;99.90
5899;DHT22;2975;50.956;6.962;2022-12-18T07:06:25;-4.50;99.90
5899;DHT22;2975;50.956;6.962;2022-12-18T07:08:51;-4.50;99.90
5899;DHT22;2975;50.956;6.962;2022-12-18T07:11:18;-4.50;99.90
5899;DHT22;2975;50.956;6.962;2022-12-18T07:13:45;-4.40;99.90
5899;DHT22;2975;50.956;6.962;2022-12-18T07:16:16;-4.40;99.90
5899;DHT22;2975;50.956;6.962;2022-12-18T07:18:43;-4.40;99.90
5899;DHT22;2975;50.956;6.962;2022-12-18T07:21:10;-4.40;99.90
5899;DHT22;2975;50.956;6.962;2022-12-18T07:23:36;-4.40;99.90
5899;DHT22;2975;50.956;6.962;2022-12-18T07:26:07;-4.30;99.90
5899;DHT22;2975;50.956;6.962;2022-12-18T07:28:33;-4.40;99.90
5899;DHT22;2975;50.956;6.962;2022-12-18T07:31:03;-4.40;99.90
5899;DHT22;2975;50.956;6.962;2022-12-18T07:33:29;-4.40;99.90
5899;DHT22;2975;50.956;6.962;2022-12-18T07:35:54;-4.40;99.90
5899;DHT22;2975;50.956;6.962;2022-12-18T07:38:20;-4.30;99.90
5899;DHT22;2975;50.956;6.962;2022-12-18T07:40:46;-4.20;99.90
5899;DHT22;2975;50.956;6.962;2022-12-18T07:43:11;-4.30;99.90
5899;DHT22;2975;50.956;6.962;2022-12-18T07:45:37;-4.30;99.90
5899;DHT22;2975;50.956;6.962;2022-12-18T07:48:02;-4.30;99.90
5899;DHT22;2975;50.956;6.962;2022-12-18T07:50:28;-4.40;99.90
5899;DHT22;2975;50.956;6.962;2022-12-18T07:52:54;-4.40;99.90
5899;DHT22;2975;50.956;6.962;2022-12-18T07:55:19;-4.50;99.90
5899;DHT22;2975;50.956;6.962;2022-12-18T07:57:45;-4.50;99.90
5899;DHT22;2975;50.956;6.962;2022-12-18T08:00:11;-4.60;99.90
5899;DHT22;2975;50.956;6.962;2022-12-18T08:02:37;-4.50;99.90
5899;DHT22;2975;50.956;6.962;2022-12-18T08:05:03;-4.40;99.90
5899;DHT22;2975;50.956;6.962;2022-12-18T08:07:28;-4.40;99.90
5899;DHT22;2975;50.956;6.962;2022-12-18T08:09:54;-4.30;99.90
5899;DHT22;2975;50.956;6.962;2022-12-18T08:12:20;-4.20;99.90
5899;DHT22;2975;50.956;6.962;2022-12-18T08:14:45;-4.20;99.90
5899;DHT22;2975;50.956;6.962;2022-12-18T08:17:11;-4.10;99.90
5899;DHT22;2975;50.956;6.962;2022-12-18T08:19:36;-4.00;99.90
5899;DHT22;2975;50.956;6.962;2022-12-18T08:22:02;-4.00;99.90
5899;DHT22;2975;50.956;6.962;2022-12-18T08:24:27;-3.90;99.90
5899;DHT22;2975;50.956;6.962;2022-12-18T08:26:53;-3.90;99.90
5899;DHT22;2975;50.956;6.962;2022-12-18T08:29:19;-3.80;99.90
5899;DHT22;2975;50.956;6.962;2022-12-18T08:31:45;-3.70;99.90
5899;DHT22;2975;50.956;6.962;2022-12-18T08:34:11;-3.60;99.90
5899;DHT22;2975;50.956;6.962;2022-12-18T08:36:36;-3.50;99.90
5899;DHT22;2975;50.956;6.962;2022-12-18T08:39:02;-3.30;99.90
5899;DHT22;2975;50.956;6.962;2022-12-18T08:41:28;-3.20;99.90
5899;DHT22;2975;50.956;6.962;2022-12-18T08:43:53;-3.20;99.90
5899;DHT22;2975;50.956;6.962;2022-12-18T08:46:39;-3.20;99.90
5899;DHT22;2975;50.956;6.962;2022-12-18T08:49:07;-3.10;99.90
5899;DHT22;2975;50.956;6.962;2022-12-18T08:51:33;-3.10;99.90
5899;DHT22;2975;50.956;6.962;2022-12-18T08:53:59;-3.00;99.90
5899;DHT22;2975;50.956;6.962;2022-12-18T08:56:25;-3.00;99.90
5899;DHT22;2975;50.956;6.962;2022-12-18T08:58:54;-2.80;99.90
5899;DHT22;2975;50.956;6.962;2022-12-18T09:01:21;-2.70;99.90
5899;DHT22;2975;50.956;6.962;2022-12-18T09:03:47;-2.70;99.90
5899;DHT22;2975;50.956;6.962;2022-12-18T09:06:16;-2.60;99.90
5899;DHT22;2975;50.956;6.962;2022-12-18T09:08:43;-2.40;99.90
5899;DHT22;2975;50.956;6.962;2022-12-18T09:11:30;-2.30;99.90
5899;DHT22;2975;50.956;6.962;2022-12-18T09:13:57;-2.20;99.90
5899;DHT22;2975;50.956;6.962;2022-12-18T09:16:24;-2.10;99.90
5899;DHT22;2975;50.956;6.962;2022-12-18T09:18:50;-2.00;99.90
5899;DHT22;2975;50.956;6.962;2022-12-18T09:21:18;-1.90;99.90
5899;DHT22;2975;50.956;6.962;2022-12-18T09:23:49;-1.90;99.90
5899;DHT22;2975;50.956;6.962;2022-12-18T09:26:15;-1.80;99.90
5899;DHT22;2975;50.956;6.962;2022-12-18T09:28:40;-1.80;99.90
5899;DHT22;2975;50.956;6.962;2022-12-18T09:31:07;-1.80;99.90
5899;DHT22;2975;50.956;6.962;2022-12-18T09:33:34;-1.70;99.90
5899;DHT22;2975;50.956;6.962;2022-12-18T09:36:02;-1.70;99.90
5899;DHT22;2975;50.956;6.962;2022-12-18T09:38:28;-1.50;99.90
5899;DHT22;2975;50.956;6.962;2022-12-18T09:40:59;-1.50;99.90
5899;DHT22;2975;50.956;6.962;2022-12-18T09:43:30;-1.30;99.90
5899;DHT22;2975;50.956;6.962;2022-12-18T09:46:06;-1.30;99.90
5899;DHT22;2975;50.956;6.962;2022-12-18T09:48:35;-1.20;99.90
5899;DHT22;2975;50.956;6.962;2022-12-18T09:54:06;-1.10;99.90
5899;DHT22;2975;50.956;6.962;2022-12-18T09:56:36;-1.00;99.90
5899;DHT22;2975;50.956;6.962;2022-12-18T09:59:04;-1.00;99.90
5899;DHT22;2975;50.956;6.962;2022-12-18T10:01:31;-0.90;99.90
5899;DHT22;2975;50.956;6.962;2022-12-18T10:03:59;-0.90;99.90
5899;DHT22;2975;50.956;6.962;2022-12-18T10:06:43;-0.80;99.90
5899;DHT22;2975;50.956;6.962;2022-12-18T10:12:08;-0.70;99.70
5899;DHT22;2975;50.956;6.962;2022-12-18T10:20:13;-0.40;99.50
5899;DHT22;2975;50.956;6.962;2022-12-18T10:22:53;-0.40;99.10
5899;DHT22;2975;50.956;6.962;2022-12-18T10:27:53;-0.20;98.90
5899;DHT22;2975;50.956;6.962;2022-12-18T10:30:23;-0.10;99.00
5899;DHT22;2975;50.956;6.962;2022-12-18T10:32:49;0.00;98.80
5899;DHT22;2975;50.956;6.962;2022-12-18T10:35:19;0.10;98.30
5899;DHT22;2975;50.956;6.962;2022-12-18T10:41:04;0.20;97.90
5899;DHT22;2975;50.956;6.962;2022-12-18T10:48:36;0.30;97.70
5899;DHT22;2975;50.956;6.962;2022-12-18T10:51:06;0.30;97.60
5899;DHT22;2975;50.956;6.962;2022-12-18T10:53:33;0.40;97.40
5899;DHT22;2975;50.956;6.962;2022-12-18T10:56:00;0.40;97.20
5899;DHT22;2975;50.956;6.962;2022-12-18T11:04:07;0.50;97.20
5899;DHT22;2975;50.956;6.962;2022-12-18T11:06:27;0.50;97.10
5899;DHT22;2975;50.956;6.962;2022-12-18T11:09:22;0.50;97.10
5899;DHT22;2975;50.956;6.962;2022-12-18T11:11:49;0.70;96.70
5899;DHT22;2975;50.956;6.962;2022-12-18T11:17:19;0.80;96.10
5899;DHT22;2975;50.956;6.962;2022-12-18T11:19:44;0.90;95.70
5899;DHT22;2975;50.956;6.962;2022-12-18T11:22:24;0.90;95.80
5899;DHT22;2975;50.956;6.962;2022-12-18T11:27:38;0.90;95.30
5899;DHT22;2975;50.956;6.962;2022-12-18T11:30:23;1.00;94.80
5899;DHT22;2975;50.956;6.962;2022-12-18T11:32:54;1.00;94.70
5899;DHT22;2975;50.956;6.962;2022-12-18T11:38:35;0.90;94.90
5899;DHT22;2975;50.956;6.962;2022-12-18T11:43:55;1.00;94.70
5899;DHT22;2975;50.956;6.962;2022-12-18T11:46:43;1.00;94.70
5899;DHT22;2975;50.956;6.962;2022-12-18T11:49:35;1.00;94.40
5899;DHT22;2975;50.956;6.962;2022-12-18T11:52:14;1.10;94.50
5899;DHT22;2975;50.956;6.962;2022-12-18T11:54:41;1.00;94.50
5899;DHT22;2975;50.956;6.962;2022-12-18T12:24:27;1.30;93.60
5899;DHT22;2975;50.956;6.962;2022-12-18T12:30:16;1.30;93.60
5899;DHT22;2975;50.956;6.962;2022-12-18T12:35:29;1.20;93.90
5899;DHT22;2975;50.956;6.962;2022-12-18T12:38:11;1.30;93.90
5899;DHT22;2975;50.956;6.962;2022-12-18T12:40:48;1.30;93.70
5899;DHT22;2975;50.956;6.962;2022-12-18T12:43:43;1.30;93.90
5899;DHT22;2975;50.956;6.962;2022-12-18T12:46:11;1.40;93.90
5899;DHT22;2975;50.956;6.962;2022-12-18T12:48:48;1.30;93.70
5899;DHT22;2975;50.956;6.962;2022-12-18T12:51:25;1.40;93.60
5899;DHT22;2975;50.956;6.962;2022-12-18T12:53:52;1.30;93.70
5899;DHT22;2975;50.956;6.962;2022-12-18T12:56:20;1.40;93.90
5899;DHT22;2975;50.956;6.962;2022-12-18T13:04:21;1.40;93.80
5899;DHT22;2975;50.956;6.962;2022-12-18T13:09:21;1.20;94.10
5899;DHT22;2975;50.956;6.962;2022-12-18T13:11:47;1.10;94.10
5899;DHT22;2975;50.956;6.962;2022-12-18T13:14:32;1.10;94.30
5899;DHT22;2975;50.956;6.962;2022-12-18T13:19:50;1.20;94.00
5899;DHT22;2975;50.956;6.962;2022-12-18T13:22:25;1.20;93.90
5899;DHT22;2975;50.956;6.962;2022-12-18T13:24:53;1.20;94.10
5899;DHT22;2975;50.956;6.962;2022-12-18T13:35:40;1.10;94.20
5899;DHT22;2975;50.956;6.962;2022-12-18T13:38:32;1.20;94.30
5899;DHT22;2975;50.956;6.962;2022-12-18T13:43:42;1.30;94.40
5899;DHT22;2975;50.956;6.962;2022-12-18T13:48:55;1.10;94.50
5899;DHT22;2975;50.956;6.962;2022-12-18T13:51:23;1.20;94.80
5899;DHT22;2975;50.956;6.962;2022-12-18T13:53:57;1.20;94.70
5899;DHT22;2975;50.956;6.962;2022-12-18T13:56:27;1.20;94.70
5899;DHT22;2975;50.956;6.962;2022-12-18T13:59:13;1.30;94.70
5899;DHT22;2975;50.956;6.962;2022-12-18T14:01:43;1.20;95.00
5899;DHT22;2975;50.956;6.962;2022-12-18T14:04:20;1.20;95.00
5899;DHT22;2975;50.956;6.962;2022-12-18T14:06:47;1.20;95.00
5899;DHT22;2975;50.956;6.962;2022-12-18T14:09:16;1.10;95.10
5899;DHT22;2975;50.956;6.962;2022-12-18T14:11:47;1.00;95.40
5899;DHT22;2975;50.956;6.962;2022-12-18T14:14:17;1.00;95.60
5899;DHT22;2975;50.956;6.962;2022-12-18T14:16:44;0.90;95.80
5899;DHT22;2975;50.956;6.962;2022-12-18T14:19:17;0.80;96.00
5899;DHT22;2975;50.956;6.962;2022-12-18T14:21:47;0.70;96.30
5899;DHT22;2975;50.956;6.962;2022-12-18T14:24:21;0.70;96.70
5899;DHT22;2975;50.956;6.962;2022-12-18T14:26:48;0.60;97.00
5899;DHT22;2975;50.956;6.962;2022-12-18T14:29:26;0.60;97.10
5899;DHT22;2975;50.956;6.962;2022-12-18T14:32:15;0.40;97.30
5899;DHT22;2975;50.956;6.962;2022-12-18T14:34:44;0.40;97.80
5899;DHT22;2975;50.956;6.962;2022-12-18T14:37:13;0.40;97.80
5899;DHT22;2975;50.956;6.962;2022-12-18T14:39:40;0.40;98.00
5899;DHT22;2975;50.956;6.962;2022-12-18T14:42:09;0.40;97.90
5899;DHT22;2975;50.956;6.962;2022-12-18T14:44:35;0.50;97.80
5899;DHT22;2975;50.956;6.962;2022-12-18T14:47:02;0.40;97.70
5899;DHT22;2975;50.956;6.962;2022-12-18T14:49:34;0.40;97.70
5899;DHT22;2975;50.956;6.962;2022-12-18T14:52:05;0.30;97.90
5899;DHT22;2975;50.956;6.962;2022-12-18T14:54:32;0.20;98.20
5899;DHT22;2975;50.956;6.962;2022-12-18T14:59:28;0.10;98.40
5899;DHT22;2975;50.956;6.962;2022-12-18T15:04:36;0.10;98.50
5899;DHT22;2975;50.956;6.962;2022-12-18T15:07:13;0.10;98.90
5899;DHT22;2975;50.956;6.962;2022-12-18T15:09:41;0.10;98.80
5899;DHT22;2975;50.956;6.962;2022-12-18T15:12:28;0.10;98.90
5899;DHT22;2975;50.956;6.962;2022-12-18T15:14:57;0.10;99.00
5899;DHT22;2975;50.956;6.962;2022-12-18T15:17:23;0.00;99.10
5899;DHT22;2975;50.956;6.962;2022-12-18T15:19:52;0.00;99.10
5899;DHT22;2975;50.956;6.962;2022-12-18T15:22:30;0.00;99.00
5899;DHT22;2975;50.956;6.962;2022-12-18T15:24:59;0.00;99.10
5899;DHT22;2975;50.956;6.962;2022-12-18T15:27:32;0.00;99.30
5899;DHT22;2975;50.956;6.962;2022-12-18T15:32:33;-0.10;99.30
5899;DHT22;2975;50.956;6.962;2022-12-18T15:37:34;-0.10;99.30
5899;DHT22;2975;50.956;6.962;2022-12-18T15:40:00;-0.10;99.70
5899;DHT22;2975;50.956;6.962;2022-12-18T15:42:27;-0.10;99.70
5899;DHT22;2975;50.956;6.962;2022-12-18T15:45:12;-0.10;99.90
5899;DHT22;2975;50.956;6.962;2022-12-18T15:47:39;-0.10;99.40
5899;DHT22;2975;50.956;6.962;2022-12-18T15:50:04;-0.10;99.70
5899;DHT22;2975;50.956;6.962;2022-12-18T15:52:42;-0.10;99.90
5899;DHT22;2975;50.956;6.962;2022-12-18T15:55:17;-0.10;99.90
5899;DHT22;2975;50.956;6.962;2022-12-18T15:58:01;-0.20;99.90
5899;DHT22;2975;50.956;6.962;2022-12-18T16:00:27;-0.30;99.90
5899;DHT22;2975;50.956;6.962;2022-12-18T16:02:53;-0.30;99.90
5899;DHT22;2975;50.956;6.962;2022-12-18T16:05:20;-0.30;99.90
5899;DHT22;2975;50.956;6.962;2022-12-18T16:07:47;-0.30;99.90
5899;DHT22;2975;50.956;6.962;2022-12-18T16:10:13;-0.30;99.90
5899;DHT22;2975;50.956;6.962;2022-12-18T16:12:39;-0.20;99.90
5899;DHT22;2975;50.956;6.962;2022-12-18T16:15:05;-0.30;99.90
5899;DHT22;2975;50.956;6.962;2022-12-18T16:17:31;-0.30;99.90
5899;DHT22;2975;50.956;6.962;2022-12-18T16:19:57;-0.30;99.90
5899;DHT22;2975;50.956;6.962;2022-12-18T16:22:27;-0.20;99.90
5899;DHT22;2975;50.956;6.962;2022-12-18T16:24:54;-0.20;99.90
5899;DHT22;2975;50.956;6.962;2022-12-18T16:27:21;-0.10;99.90
5899;DHT22;2975;50.956;6.962;2022-12-18T16:29:47;-0.20;99.90
5899;DHT22;2975;50.956;6.962;2022-12-18T16:32:16;-0.30;99.90
5899;DHT22;2975;50.956;6.962;2022-12-18T16:34:42;-0.20;99.90
5899;DHT22;2975;50.956;6.962;2022-12-18T16:37:11;-0.30;99.90
5899;DHT22;2975;50.956;6.962;2022-12-18T16:39:38;-0.20;99.90
5899;DHT22;2975;50.956;6.962;2022-12-18T16:42:14;-0.30;99.90
5899;DHT22;2975;50.956;6.962;2022-12-18T16:44:42;-0.20;99.90
5899;DHT22;2975;50.956;6.962;2022-12-18T16:47:08;-0.20;99.90
5899;DHT22;2975;50.956;6.962;2022-12-18T16:49:34;-0.30;99.90
5899;DHT22;2975;50.956;6.962;2022-12-18T16:52:00;-0.20;99.90
5899;DHT22;2975;50.956;6.962;2022-12-18T16:54:25;-0.30;99.90
5899;DHT22;2975;50.956;6.962;2022-12-18T16:56:55;-0.30;99.90
5899;DHT22;2975;50.956;6.962;2022-12-18T16:59:21;-0.20;99.90
5899;DHT22;2975;50.956;6.962;2022-12-18T17:01:47;-0.20;99.90
5899;DHT22;2975;50.956;6.962;2022-12-18T17:04:13;-0.10;99.90
5899;DHT22;2975;50.956;6.962;2022-12-18T17:06:41;-0.20;99.90
5899;DHT22;2975;50.956;6.962;2022-12-18T17:09:10;-0.20;99.90
5899;DHT22;2975;50.956;6.962;2022-12-18T17:11:36;-0.20;99.90
5899;DHT22;2975;50.956;6.962;2022-12-18T17:14:10;-0.20;99.90
5899;DHT22;2975;50.956;6.962;2022-12-18T17:16:36;-0.20;99.90
5899;DHT22;2975;50.956;6.962;2022-12-18T17:19:02;-0.10;99.90
5899;DHT22;2975;50.956;6.962;2022-12-18T17:21:28;0.00;99.90
5899;DHT22;2975;50.956;6.962;2022-12-18T17:23:53;-0.20;99.90
5899;DHT22;2975;50.956;6.962;2022-12-18T17:26:19;-0.10;99.90
5899;DHT22;2975;50.956;6.962;2022-12-18T17:28:45;-0.10;99.90
5899;DHT22;2975;50.956;6.962;2022-12-18T17:31:13;-0.10;99.90
5899;DHT22;2975;50.956;6.962;2022-12-18T17:33:39;-0.10;99.90
5899;DHT22;2975;50.956;6.962;2022-12-18T17:36:05;-0.10;99.90
5899;DHT22;2975;50.956;6.962;2022-12-18T17:38:31;-0.10;99.90
5899;DHT22;2975;50.956;6.962;2022-12-18T17:41:05;-0.10;99.90
5899;DHT22;2975;50.956;6.962;2022-12-18T17:43:31;-0.10;99.90
5899;DHT22;2975;50.956;6.962;2022-12-18T17:46:06;0.00;99.90
5899;DHT22;2975;50.956;6.962;2022-12-18T17:48:36;0.00;99.90
5899;DHT22;2975;50.956;6.962;2022-12-18T17:51:03;0.00;99.90
5899;DHT22;2975;50.956;6.962;2022-12-18T17:53:29;0.00;99.90
5899;DHT22;2975;50.956;6.962;2022-12-18T17:55:55;-0.20;99.90
5899;DHT22;2975;50.956;6.962;2022-12-18T17:58:22;-0.20;99.90
5899;DHT22;2975;50.956;6.962;2022-12-18T18:00:48;-0.20;99.90
5899;DHT22;2975;50.956;6.962;2022-12-18T18:03:14;-0.30;99.90
5899;DHT22;2975;50.956;6.962;2022-12-18T18:05:39;-0.20;99.90
5899;DHT22;2975;50.956;6.962;2022-12-18T18:08:05;-0.20;99.90
5899;DHT22;2975;50.956;6.962;2022-12-18T18:10:31;-0.20;99.90
5899;DHT22;2975;50.956;6.962;2022-12-18T18:12:58;-0.10;99.90
5899;DHT22;2975;50.956;6.962;2022-12-18T18:15:42;-0.10;99.90
5899;DHT22;2975;50.956;6.962;2022-12-18T18:18:07;-0.10;99.90
5899;DHT22;2975;50.956;6.962;2022-12-18T18:20:38;-0.10;99.90
5899;DHT22;2975;50.956;6.962;2022-12-18T18:23:04;-0.20;99.90
5899;DHT22;2975;50.956;6.962;2022-12-18T18:25:30;-0.10;99.90
5899;DHT22;2975;50.956;6.962;2022-12-18T18:31:17;-0.20;99.90
5899;DHT22;2975;50.956;6.962;2022-12-18T18:33:43;-0.10;99.90
5899;DHT22;2975;50.956;6.962;2022-12-18T18:36:09;-0.10;99.90